sensor_id;sensor_type;location;lat;lon;timestamp;P1;durP1;ratioP1;P2;durP2;ratioP2
15502;SDS011;7853;52.186;5.948;2023-03-07T00:03:14;2.70;;;2.09;;
15502;SDS011;7853;52.186;5.948;2023-03-07T00:03:14;2.29;;;1.75;;
15502;SDS011;7853;52.186;5.948;2023-03-07T00:04:14;3.65;;;2.78;;
15502;SDS011;7853;52.186;5.948;2023-03-07T00:05:00;2.26;;;1.88;;
15502;SDS011;7853;52.186;5.948;2023-03-07T00:05:46;2.64;;;2.01;;
15502;SDS011;7853;52.186;5.948;2023-03-07T00:06:39;2.41;;;1.88;;
15502;SDS011;7853;52.186;5.948;2023-03-07T00:07:36;2.07;;;1.68;;
15502;SDS011;7853;52.186;5.948;2023-03-07T00:08:34;2.40;;;1.50;;
15502;SDS011;7853;52.186;5.948;2023-03-07T00:09:33;3.65;;;2.54;;
15502;SDS011;7853;52.186;5.948;2023-03-07T00:10:33;3.00;;;2.58;;
15502;SDS011;7853;52.186;5.948;2023-03-07T00:11:34;2.82;;;2.20;;
15502;SDS011;7853;52.186;5.948;2023-03-07T00:12:33;3.40;;;2.69;;
15502;SDS011;7853;52.186;5.948;2023-03-07T00:13:33;3.00;;;2.21;;
15502;SDS011;7853;52.186;5.948;2023-03-07T00:14:33;3.02;;;2.07;;
15502;SDS011;7853;52.186;5.948;2023-03-07T00:15:33;2.92;;;1.98;;
15502;SDS011;7853;52.186;5.948;2023-03-07T00:16:33;3.02;;;2.01;;
15502;SDS011;7853;52.186;5.948;2023-03-07T00:17:34;3.03;;;2.16;;
15502;SDS011;7853;52.186;5.948;2023-03-07T00:18:34;2.51;;;1.97;;
15502;SDS011;7853;52.186;5.948;2023-03-07T00:19:33;2.05;;;1.68;;
15502;SDS011;7853;52.186;5.948;2023-03-07T00:20:34;3.36;;;2.34;;
15502;SDS011;7853;52.186;5.948;2023-03-07T00:21:33;3.17;;;2.24;;
15502;SDS011;7853;52.186;5.948;2023-03-07T00:22:34;3.28;;;2.37;;
15502;SDS011;7853;52.186;5.948;2023-03-07T00:23:34;2.86;;;2.29;;
15502;SDS011;7853;52.186;5.948;2023-03-07T00:24:33;3.93;;;2.78;;
15502;SDS011;7853;52.186;5.948;2023-03-07T00:25:33;3.31;;;2.70;;
15502;SDS011;7853;52.186;5.948;2023-03-07T00:26:33;2.85;;;2.24;;
15502;SDS011;7853;52.186;5.948;2023-03-07T00:27:33;3.94;;;3.16;;
15502;SDS011;7853;52.186;5.948;2023-03-07T00:28:34;3.29;;;2.85;;
15502;SDS011;7853;52.186;5.948;2023-03-07T00:29:34;2.63;;;2.23;;
15502;SDS011;7853;52.186;5.948;2023-03-07T00:30:34;2.68;;;2.01;;
15502;SDS011;7853;52.186;5.948;2023-03-07T00:31:34;3.67;;;2.55;;
15502;SDS011;7853;52.186;5.948;2023-03-07T00:32:34;2.58;;;2.19;;
15502;SDS011;7853;52.186;5.948;2023-03-07T00:33:34;2.84;;;2.44;;
15502;SDS011;7853;52.186;5.948;2023-03-07T00:34:34;3.52;;;2.59;;
15502;SDS011;7853;52.186;5.948;2023-03-07T00:35:34;5.01;;;3.53;;
15502;SDS011;7853;52.186;5.948;2023-03-07T00:36:34;4.12;;;3.45;;
15502;SDS011;7853;52.186;5.948;2023-03-07T00:37:34;3.69;;;2.74;;
15502;SDS011;7853;52.186;5.948;2023-03-07T00:38:35;6.49;;;4.07;;
15502;SDS011;7853;52.186;5.948;2023-03-07T00:39:34;3.58;;;3.06;;
15502;SDS011;7853;52.186;5.948;2023-03-07T00:40:34;3.62;;;2.83;;
15502;SDS011;7853;52.186;5.948;2023-03-07T00:41:34;4.13;;;3.23;;
15502;SDS011;7853;52.186;5.948;2023-03-07T00:42:34;3.52;;;2.58;;
15502;SDS011;7853;52.186;5.948;2023-03-07T00:43:34;3.73;;;2.70;;
15502;SDS011;7853;52.186;5.948;2023-03-07T00:44:34;2.88;;;2.59;;
15502;SDS011;7853;52.186;5.948;2023-03-07T00:45:34;3.45;;;2.81;;
15502;SDS011;7853;52.186;5.948;2023-03-07T00:46:34;3.86;;;3.22;;
15502;SDS011;7853;52.186;5.948;2023-03-07T00:47:34;1.89;;;1.65;;
15502;SDS011;7853;52.186;5.948;2023-03-07T00:48:35;2.86;;;2.47;;
15502;SDS011;7853;52.186;5.948;2023-03-07T00:49:34;3.02;;;2.58;;
15502;SDS011;7853;52.186;5.948;2023-03-07T00:50:35;3.41;;;2.87;;
15502;SDS011;7853;52.186;5.948;2023-03-07T00:51:34;2.12;;;1.73;;
15502;SDS011;7853;52.186;5.948;2023-03-07T00:52:34;3.73;;;2.94;;
15502;SDS011;7853;52.186;5.948;2023-03-07T00:53:34;2.69;;;2.36;;
15502;SDS011;7853;52.186;5.948;2023-03-07T00:54:35;3.82;;;3.20;;
15502;SDS011;7853;52.186;5.948;2023-03-07T00:55:34;3.02;;;2.49;;
15502;SDS011;7853;52.186;5.948;2023-03-07T00:56:34;3.37;;;2.65;;
15502;SDS011;7853;52.186;5.948;2023-03-07T00:57:34;3.66;;;3.04;;
15502;SDS011;7853;52.186;5.948;2023-03-07T00:58:35;2.88;;;2.39;;
15502;SDS011;7853;52.186;5.948;2023-03-07T00:59:34;3.17;;;2.76;;
15502;SDS011;7853;52.186;5.948;2023-03-07T01:00:34;4.40;;;3.02;;
15502;SDS011;7853;52.186;5.948;2023-03-07T01:01:35;3.05;;;2.16;;
15502;SDS011;7853;52.186;5.948;2023-03-07T01:02:34;3.53;;;2.49;;
15502;SDS011;7853;52.186;5.948;2023-03-07T01:03:35;4.09;;;3.09;;
15502;SDS011;7853;52.186;5.948;2023-03-07T01:04:34;3.45;;;2.58;;
15502;SDS011;7853;52.186;5.948;2023-03-07T01:05:37;1.98;;;1.40;;
15502;SDS011;7853;52.186;5.948;2023-03-07T01:06:35;4.10;;;3.18;;
15502;SDS011;7853;52.186;5.948;2023-03-07T01:07:34;2.71;;;2.06;;
15502;SDS011;7853;52.186;5.948;2023-03-07T01:08:35;3.63;;;2.69;;
15502;SDS011;7853;52.186;5.948;2023-03-07T01:09:35;3.18;;;2.23;;
15502;SDS011;7853;52.186;5.948;2023-03-07T01:10:35;2.26;;;1.56;;
15502;SDS011;7853;52.186;5.948;2023-03-07T01:11:34;3.49;;;2.48;;
15502;SDS011;7853;52.186;5.948;2023-03-07T01:12:35;4.56;;;1.62;;
15502;SDS011;7853;52.186;5.948;2023-03-07T01:13:34;4.02;;;2.54;;
15502;SDS011;7853;52.186;5.948;2023-03-07T01:14:35;3.52;;;2.77;;
15502;SDS011;7853;52.186;5.948;2023-03-07T01:15:35;5.73;;;3.14;;
15502;SDS011;7853;52.186;5.948;2023-03-07T01:16:35;3.41;;;2.58;;
15502;SDS011;7853;52.186;5.948;2023-03-07T01:17:34;2.40;;;1.92;;
15502;SDS011;7853;52.186;5.948;2023-03-07T01:18:35;2.33;;;1.91;;
15502;SDS011;7853;52.186;5.948;2023-03-07T01:19:35;3.83;;;2.77;;
15502;SDS011;7853;52.186;5.948;2023-03-07T01:20:35;4.76;;;2.83;;
15502;SDS011;7853;52.186;5.948;2023-03-07T01:21:35;3.72;;;2.58;;
15502;SDS011;7853;52.186;5.948;2023-03-07T01:22:35;5.09;;;2.93;;
15502;SDS011;7853;52.186;5.948;2023-03-07T01:23:35;2.22;;;1.85;;
15502;SDS011;7853;52.186;5.948;2023-03-07T01:24:35;4.15;;;2.78;;
15502;SDS011;7853;52.186;5.948;2023-03-07T01:25:36;5.90;;;3.17;;
15502;SDS011;7853;52.186;5.948;2023-03-07T01:26:35;4.54;;;2.32;;
15502;SDS011;7853;52.186;5.948;2023-03-07T01:27:37;4.97;;;2.78;;
15502;SDS011;7853;52.186;5.948;2023-03-07T01:28:34;2.24;;;1.72;;
15502;SDS011;7853;52.186;5.948;2023-03-07T01:29:34;3.50;;;2.14;;
15502;SDS011;7853;52.186;5.948;2023-03-07T01:30:34;4.43;;;2.99;;
15502;SDS011;7853;52.186;5.948;2023-03-07T01:31:35;2.46;;;1.87;;
15502;SDS011;7853;52.186;5.948;2023-03-07T01:32:37;2.01;;;1.51;;
15502;SDS011;7853;52.186;5.948;2023-03-07T01:33:34;4.09;;;2.39;;
15502;SDS011;7853;52.186;5.948;2023-03-07T01:34:35;5.38;;;2.88;;
15502;SDS011;7853;52.186;5.948;2023-03-07T01:35:35;2.62;;;1.87;;
15502;SDS011;7853;52.186;5.948;2023-03-07T01:36:35;1.51;;;1.19;;
15502;SDS011;7853;52.186;5.948;2023-03-07T01:37:35;3.42;;;2.32;;
15502;SDS011;7853;52.186;5.948;2023-03-07T01:38:35;3.46;;;1.99;;
15502;SDS011;7853;52.186;5.948;2023-03-07T01:39:35;1.26;;;1.12;;
15502;SDS011;7853;52.186;5.948;2023-03-07T01:40:35;1.89;;;1.25;;
15502;SDS011;7853;52.186;5.948;2023-03-07T01:41:35;1.42;;;1.04;;
15502;SDS011;7853;52.186;5.948;2023-03-07T01:42:34;1.48;;;1.19;;
15502;SDS011;7853;52.186;5.948;2023-03-07T01:43:35;1.71;;;1.09;;
15502;SDS011;7853;52.186;5.948;2023-03-07T01:44:56;1.66;;;1.25;;
15502;SDS011;7853;52.186;5.948;2023-03-07T01:47:01;2.48;;;1.38;;
15502;SDS011;7853;52.186;5.948;2023-03-07T01:47:54;2.27;;;1.77;;
15502;SDS011;7853;52.186;5.948;2023-03-07T01:48:47;2.84;;;2.10;;
15502;SDS011;7853;52.186;5.948;2023-03-07T01:49:41;2.93;;;1.93;;
15502;SDS011;7853;52.186;5.948;2023-03-07T01:50:37;3.14;;;2.10;;
15502;SDS011;7853;52.186;5.948;2023-03-07T01:51:36;1.32;;;1.05;;
15502;SDS011;7853;52.186;5.948;2023-03-07T01:52:35;2.87;;;1.84;;
15502;SDS011;7853;52.186;5.948;2023-03-07T01:53:33;3.66;;;2.45;;
15502;SDS011;7853;52.186;5.948;2023-03-07T01:54:34;3.42;;;2.41;;
15502;SDS011;7853;52.186;5.948;2023-03-07T01:55:34;3.73;;;2.47;;
15502;SDS011;7853;52.186;5.948;2023-03-07T01:56:34;2.33;;;1.59;;
15502;SDS011;7853;52.186;5.948;2023-03-07T01:57:35;2.79;;;1.78;;
15502;SDS011;7853;52.186;5.948;2023-03-07T01:58:34;3.74;;;2.50;;
15502;SDS011;7853;52.186;5.948;2023-03-07T01:59:35;3.38;;;2.21;;
15502;SDS011;7853;52.186;5.948;2023-03-07T02:00:35;3.09;;;1.93;;
15502;SDS011;7853;52.186;5.948;2023-03-07T02:01:33;1.50;;;1.13;;
15502;SDS011;7853;52.186;5.948;2023-03-07T02:02:34;3.10;;;2.22;;
15502;SDS011;7853;52.186;5.948;2023-03-07T02:03:35;4.22;;;2.54;;
15502;SDS011;7853;52.186;5.948;2023-03-07T02:04:35;3.23;;;1.71;;
15502;SDS011;7853;52.186;5.948;2023-03-07T02:05:34;2.76;;;2.13;;
15502;SDS011;7853;52.186;5.948;2023-03-07T02:06:34;2.52;;;1.89;;
15502;SDS011;7853;52.186;5.948;2023-03-07T02:07:35;1.82;;;1.42;;
15502;SDS011;7853;52.186;5.948;2023-03-07T02:08:34;1.15;;;0.97;;
15502;SDS011;7853;52.186;5.948;2023-03-07T02:09:34;2.52;;;1.75;;
15502;SDS011;7853;52.186;5.948;2023-03-07T02:10:34;2.76;;;1.90;;
15502;SDS011;7853;52.186;5.948;2023-03-07T02:11:34;1.96;;;1.20;;
15502;SDS011;7853;52.186;5.948;2023-03-07T02:12:34;4.16;;;2.11;;
15502;SDS011;7853;52.186;5.948;2023-03-07T02:13:34;2.95;;;1.68;;
15502;SDS011;7853;52.186;5.948;2023-03-07T02:14:34;3.79;;;2.23;;
15502;SDS011;7853;52.186;5.948;2023-03-07T02:15:34;4.85;;;2.71;;
15502;SDS011;7853;52.186;5.948;2023-03-07T02:16:34;2.27;;;1.71;;
15502;SDS011;7853;52.186;5.948;2023-03-07T02:17:34;3.44;;;1.84;;
15502;SDS011;7853;52.186;5.948;2023-03-07T02:18:35;2.14;;;1.31;;
15502;SDS011;7853;52.186;5.948;2023-03-07T02:19:39;4.91;;;2.27;;
15502;SDS011;7853;52.186;5.948;2023-03-07T02:20:36;3.52;;;2.24;;
15502;SDS011;7853;52.186;5.948;2023-03-07T02:21:35;3.92;;;2.10;;
15502;SDS011;7853;52.186;5.948;2023-03-07T02:22:35;3.92;;;2.23;;
15502;SDS011;7853;52.186;5.948;2023-03-07T02:23:35;2.89;;;2.03;;
15502;SDS011;7853;52.186;5.948;2023-03-07T02:24:37;2.39;;;1.54;;
15502;SDS011;7853;52.186;5.948;2023-03-07T02:25:35;3.23;;;2.07;;
15502;SDS011;7853;52.186;5.948;2023-03-07T02:26:39;2.24;;;1.65;;
15502;SDS011;7853;52.186;5.948;2023-03-07T02:27:35;3.73;;;1.86;;
15502;SDS011;7853;52.186;5.948;2023-03-07T02:28:34;3.59;;;1.96;;
15502;SDS011;7853;52.186;5.948;2023-03-07T02:29:35;3.63;;;2.10;;
15502;SDS011;7853;52.186;5.948;2023-03-07T02:30:35;2.97;;;2.00;;
15502;SDS011;7853;52.186;5.948;2023-03-07T02:31:34;3.81;;;2.16;;
15502;SDS011;7853;52.186;5.948;2023-03-07T02:32:35;2.27;;;1.54;;
15502;SDS011;7853;52.186;5.948;2023-03-07T02:33:35;2.96;;;1.68;;
15502;SDS011;7853;52.186;5.948;2023-03-07T02:34:35;2.18;;;1.13;;
15502;SDS011;7853;52.186;5.948;2023-03-07T02:35:34;2.00;;;1.52;;
15502;SDS011;7853;52.186;5.948;2023-03-07T02:36:35;2.31;;;1.67;;
15502;SDS011;7853;52.186;5.948;2023-03-07T02:37:36;2.90;;;2.03;;
15502;SDS011;7853;52.186;5.948;2023-03-07T02:38:35;3.00;;;1.74;;
15502;SDS011;7853;52.186;5.948;2023-03-07T02:39:34;3.34;;;1.67;;
15502;SDS011;7853;52.186;5.948;2023-03-07T02:40:35;3.35;;;1.65;;
15502;SDS011;7853;52.186;5.948;2023-03-07T02:41:35;2.58;;;1.74;;
15502;SDS011;7853;52.186;5.948;2023-03-07T02:42:35;3.45;;;1.91;;
15502;SDS011;7853;52.186;5.948;2023-03-07T02:43:35;2.81;;;1.64;;
15502;SDS011;7853;52.186;5.948;2023-03-07T02:44:35;2.26;;;1.41;;
15502;SDS011;7853;52.186;5.948;2023-03-07T02:45:34;2.55;;;1.50;;
15502;SDS011;7853;52.186;5.948;2023-03-07T02:46:35;2.75;;;1.65;;
15502;SDS011;7853;52.186;5.948;2023-03-07T02:47:34;1.78;;;1.09;;
15502;SDS011;7853;52.186;5.948;2023-03-07T02:48:35;2.91;;;1.53;;
15502;SDS011;7853;52.186;5.948;2023-03-07T02:49:34;1.91;;;1.13;;
15502;SDS011;7853;52.186;5.948;2023-03-07T02:50:34;1.64;;;1.03;;
15502;SDS011;7853;52.186;5.948;2023-03-07T02:51:35;2.81;;;1.62;;
15502;SDS011;7853;52.186;5.948;2023-03-07T02:52:34;4.07;;;1.64;;
15502;SDS011;7853;52.186;5.948;2023-03-07T02:53:34;2.72;;;1.32;;
15502;SDS011;7853;52.186;5.948;2023-03-07T02:54:35;2.81;;;1.23;;
15502;SDS011;7853;52.186;5.948;2023-03-07T02:55:35;1.86;;;1.33;;
15502;SDS011;7853;52.186;5.948;2023-03-07T02:56:34;2.95;;;1.74;;
15502;SDS011;7853;52.186;5.948;2023-03-07T02:57:34;3.59;;;1.60;;
15502;SDS011;7853;52.186;5.948;2023-03-07T02:58:34;3.60;;;1.74;;
15502;SDS011;7853;52.186;5.948;2023-03-07T02:59:35;3.69;;;1.40;;
15502;SDS011;7853;52.186;5.948;2023-03-07T03:00:35;2.00;;;1.13;;
15502;SDS011;7853;52.186;5.948;2023-03-07T03:01:34;3.14;;;1.32;;
15502;SDS011;7853;52.186;5.948;2023-03-07T03:02:35;2.46;;;1.46;;
15502;SDS011;7853;52.186;5.948;2023-03-07T03:03:35;3.19;;;1.39;;
15502;SDS011;7853;52.186;5.948;2023-03-07T03:04:34;2.61;;;1.35;;
15502;SDS011;7853;52.186;5.948;2023-03-07T03:05:34;3.04;;;1.41;;
15502;SDS011;7853;52.186;5.948;2023-03-07T03:06:35;2.96;;;1.48;;
15502;SDS011;7853;52.186;5.948;2023-03-07T03:07:34;3.03;;;1.55;;
15502;SDS011;7853;52.186;5.948;2023-03-07T03:08:35;2.52;;;1.52;;
15502;SDS011;7853;52.186;5.948;2023-03-07T03:09:35;2.39;;;1.27;;
15502;SDS011;7853;52.186;5.948;2023-03-07T03:10:35;0.99;;;0.92;;
15502;SDS011;7853;52.186;5.948;2023-03-07T03:11:34;2.55;;;1.30;;
15502;SDS011;7853;52.186;5.948;2023-03-07T03:12:35;2.84;;;1.46;;
15502;SDS011;7853;52.186;5.948;2023-03-07T03:13:34;3.46;;;1.48;;
15502;SDS011;7853;52.186;5.948;2023-03-07T03:14:35;1.99;;;1.29;;
15502;SDS011;7853;52.186;5.948;2023-03-07T03:15:34;2.20;;;1.13;;
15502;SDS011;7853;52.186;5.948;2023-03-07T03:16:35;1.66;;;1.05;;
15502;SDS011;7853;52.186;5.948;2023-03-07T03:17:35;2.58;;;1.47;;
15502;SDS011;7853;52.186;5.948;2023-03-07T03:18:34;2.56;;;1.47;;
15502;SDS011;7853;52.186;5.948;2023-03-07T03:19:34;2.74;;;1.36;;
15502;SDS011;7853;52.186;5.948;2023-03-07T03:20:35;3.35;;;1.30;;
15502;SDS011;7853;52.186;5.948;2023-03-07T03:21:35;3.25;;;1.47;;
15502;SDS011;7853;52.186;5.948;2023-03-07T03:22:35;2.54;;;1.30;;
15502;SDS011;7853;52.186;5.948;2023-03-07T03:23:35;2.99;;;1.30;;
15502;SDS011;7853;52.186;5.948;2023-03-07T03:24:36;3.93;;;1.24;;
15502;SDS011;7853;52.186;5.948;2023-03-07T03:25:35;1.01;;;0.81;;
15502;SDS011;7853;52.186;5.948;2023-03-07T03:26:35;2.40;;;1.33;;
15502;SDS011;7853;52.186;5.948;2023-03-07T03:27:35;2.70;;;1.29;;
15502;SDS011;7853;52.186;5.948;2023-03-07T03:28:35;3.34;;;1.32;;
15502;SDS011;7853;52.186;5.948;2023-03-07T03:29:35;2.90;;;1.32;;
15502;SDS011;7853;52.186;5.948;2023-03-07T03:30:35;1.82;;;1.14;;
15502;SDS011;7853;52.186;5.948;2023-03-07T03:31:35;1.18;;;0.87;;
15502;SDS011;7853;52.186;5.948;2023-03-07T03:32:35;3.76;;;1.64;;
15502;SDS011;7853;52.186;5.948;2023-03-07T03:33:35;2.42;;;1.32;;
15502;SDS011;7853;52.186;5.948;2023-03-07T03:34:34;3.35;;;1.41;;
15502;SDS011;7853;52.186;5.948;2023-03-07T03:35:34;3.38;;;1.56;;
15502;SDS011;7853;52.186;5.948;2023-03-07T03:36:34;2.79;;;1.24;;
15502;SDS011;7853;52.186;5.948;2023-03-07T03:37:35;2.06;;;0.92;;
15502;SDS011;7853;52.186;5.948;2023-03-07T03:38:35;3.42;;;1.29;;
15502;SDS011;7853;52.186;5.948;2023-03-07T03:39:34;3.93;;;1.43;;
15502;SDS011;7853;52.186;5.948;2023-03-07T03:40:36;1.53;;;1.03;;
15502;SDS011;7853;52.186;5.948;2023-03-07T03:41:35;2.91;;;1.35;;
15502;SDS011;7853;52.186;5.948;2023-03-07T03:42:34;3.46;;;1.54;;
15502;SDS011;7853;52.186;5.948;2023-03-07T03:43:35;3.25;;;1.48;;
15502;SDS011;7853;52.186;5.948;2023-03-07T03:44:35;4.11;;;1.70;;
15502;SDS011;7853;52.186;5.948;2023-03-07T03:45:35;3.18;;;1.24;;
15502;SDS011;7853;52.186;5.948;2023-03-07T03:46:35;3.95;;;1.48;;
15502;SDS011;7853;52.186;5.948;2023-03-07T03:47:35;3.00;;;1.38;;
15502;SDS011;7853;52.186;5.948;2023-03-07T03:48:35;2.14;;;1.26;;
15502;SDS011;7853;52.186;5.948;2023-03-07T03:49:35;3.16;;;1.52;;
15502;SDS011;7853;52.186;5.948;2023-03-07T03:50:35;3.77;;;1.57;;
15502;SDS011;7853;52.186;5.948;2023-03-07T03:51:34;3.42;;;1.48;;
15502;SDS011;7853;52.186;5.948;2023-03-07T03:52:35;3.93;;;1.66;;
15502;SDS011;7853;52.186;5.948;2023-03-07T03:53:35;3.57;;;1.48;;
15502;SDS011;7853;52.186;5.948;2023-03-07T03:54:34;3.05;;;1.30;;
15502;SDS011;7853;52.186;5.948;2023-03-07T03:55:35;3.26;;;1.32;;
15502;SDS011;7853;52.186;5.948;2023-03-07T03:56:35;2.85;;;1.29;;
15502;SDS011;7853;52.186;5.948;2023-03-07T03:57:35;1.74;;;1.39;;
15502;SDS011;7853;52.186;5.948;2023-03-07T03:58:34;3.31;;;1.35;;
15502;SDS011;7853;52.186;5.948;2023-03-07T03:59:34;2.66;;;1.50;;
15502;SDS011;7853;52.186;5.948;2023-03-07T04:00:35;3.90;;;1.64;;
15502;SDS011;7853;52.186;5.948;2023-03-07T04:01:35;1.72;;;1.20;;
15502;SDS011;7853;52.186;5.948;2023-03-07T04:02:35;3.14;;;1.48;;
15502;SDS011;7853;52.186;5.948;2023-03-07T04:03:35;4.02;;;1.81;;
15502;SDS011;7853;52.186;5.948;2023-03-07T04:04:34;4.59;;;1.92;;
15502;SDS011;7853;52.186;5.948;2023-03-07T04:05:35;3.35;;;1.24;;
15502;SDS011;7853;52.186;5.948;2023-03-07T04:06:35;3.91;;;1.70;;
15502;SDS011;7853;52.186;5.948;2023-03-07T04:07:35;3.87;;;1.63;;
15502;SDS011;7853;52.186;5.948;2023-03-07T04:08:35;2.93;;;1.39;;
15502;SDS011;7853;52.186;5.948;2023-03-07T04:09:34;3.49;;;1.85;;
15502;SDS011;7853;52.186;5.948;2023-03-07T04:10:34;3.77;;;1.75;;
15502;SDS011;7853;52.186;5.948;2023-03-07T04:11:35;3.62;;;1.55;;
15502;SDS011;7853;52.186;5.948;2023-03-07T04:12:35;2.35;;;1.25;;
15502;SDS011;7853;52.186;5.948;2023-03-07T04:13:35;2.24;;;1.19;;
15502;SDS011;7853;52.186;5.948;2023-03-07T04:14:35;2.70;;;1.34;;
15502;SDS011;7853;52.186;5.948;2023-03-07T04:15:34;2.82;;;1.43;;
15502;SDS011;7853;52.186;5.948;2023-03-07T04:16:35;2.15;;;1.26;;
15502;SDS011;7853;52.186;5.948;2023-03-07T04:17:35;3.01;;;1.79;;
15502;SDS011;7853;52.186;5.948;2023-03-07T04:18:35;3.51;;;1.75;;
15502;SDS011;7853;52.186;5.948;2023-03-07T04:19:34;2.75;;;1.61;;
15502;SDS011;7853;52.186;5.948;2023-03-07T04:20:34;3.21;;;1.42;;
15502;SDS011;7853;52.186;5.948;2023-03-07T04:21:34;1.83;;;1.09;;
15502;SDS011;7853;52.186;5.948;2023-03-07T04:22:35;2.78;;;1.57;;
15502;SDS011;7853;52.186;5.948;2023-03-07T04:23:35;2.04;;;1.23;;
15502;SDS011;7853;52.186;5.948;2023-03-07T04:24:35;1.53;;;1.12;;
15502;SDS011;7853;52.186;5.948;2023-03-07T04:25:34;3.38;;;1.53;;
15502;SDS011;7853;52.186;5.948;2023-03-07T04:26:35;3.46;;;1.78;;
15502;SDS011;7853;52.186;5.948;2023-03-07T04:27:34;3.27;;;1.59;;
15502;SDS011;7853;52.186;5.948;2023-03-07T04:28:35;2.75;;;1.67;;
15502;SDS011;7853;52.186;5.948;2023-03-07T04:29:35;2.91;;;1.74;;
15502;SDS011;7853;52.186;5.948;2023-03-07T04:30:35;3.49;;;1.83;;
15502;SDS011;7853;52.186;5.948;2023-03-07T04:31:35;3.83;;;1.84;;
15502;SDS011;7853;52.186;5.948;2023-03-07T04:32:35;3.99;;;1.82;;
15502;SDS011;7853;52.186;5.948;2023-03-07T04:33:35;3.16;;;1.54;;
15502;SDS011;7853;52.186;5.948;2023-03-07T04:34:35;3.53;;;1.88;;
15502;SDS011;7853;52.186;5.948;2023-03-07T04:35:34;2.64;;;1.42;;
15502;SDS011;7853;52.186;5.948;2023-03-07T04:36:35;2.79;;;1.50;;
15502;SDS011;7853;52.186;5.948;2023-03-07T04:37:35;4.19;;;1.77;;
15502;SDS011;7853;52.186;5.948;2023-03-07T04:38:35;3.22;;;1.63;;
15502;SDS011;7853;52.186;5.948;2023-03-07T04:39:35;2.80;;;1.42;;
15502;SDS011;7853;52.186;5.948;2023-03-07T04:40:35;2.98;;;1.54;;
15502;SDS011;7853;52.186;5.948;2023-03-07T04:41:35;4.00;;;1.66;;
15502;SDS011;7853;52.186;5.948;2023-03-07T04:42:34;3.11;;;1.49;;
15502;SDS011;7853;52.186;5.948;2023-03-07T04:43:34;2.10;;;1.52;;
15502;SDS011;7853;52.186;5.948;2023-03-07T04:44:34;3.54;;;1.82;;
15502;SDS011;7853;52.186;5.948;2023-03-07T04:45:35;1.74;;;0.95;;
15502;SDS011;7853;52.186;5.948;2023-03-07T04:46:35;2.04;;;1.06;;
15502;SDS011;7853;52.186;5.948;2023-03-07T04:47:34;3.71;;;1.64;;
15502;SDS011;7853;52.186;5.948;2023-03-07T04:48:35;2.80;;;1.32;;
15502;SDS011;7853;52.186;5.948;2023-03-07T04:49:34;3.35;;;1.70;;
15502;SDS011;7853;52.186;5.948;2023-03-07T04:50:35;3.26;;;1.74;;
15502;SDS011;7853;52.186;5.948;2023-03-07T04:51:34;3.90;;;1.82;;
15502;SDS011;7853;52.186;5.948;2023-03-07T04:52:34;3.28;;;1.71;;
15502;SDS011;7853;52.186;5.948;2023-03-07T04:53:34;2.76;;;1.55;;
15502;SDS011;7853;52.186;5.948;2023-03-07T04:54:34;2.25;;;1.41;;
15502;SDS011;7853;52.186;5.948;2023-03-07T04:55:35;2.69;;;1.50;;
15502;SDS011;7853;52.186;5.948;2023-03-07T04:56:35;3.49;;;1.65;;
15502;SDS011;7853;52.186;5.948;2023-03-07T04:57:35;3.92;;;1.50;;
15502;SDS011;7853;52.186;5.948;2023-03-07T04:58:35;3.11;;;1.38;;
15502;SDS011;7853;52.186;5.948;2023-03-07T04:59:35;3.53;;;1.34;;
15502;SDS011;7853;52.186;5.948;2023-03-07T05:00:35;2.56;;;1.44;;
15502;SDS011;7853;52.186;5.948;2023-03-07T05:01:35;4.43;;;1.63;;
15502;SDS011;7853;52.186;5.948;2023-03-07T05:02:35;1.66;;;0.90;;
15502;SDS011;7853;52.186;5.948;2023-03-07T05:03:35;2.50;;;0.97;;
15502;SDS011;7853;52.186;5.948;2023-03-07T05:04:34;1.69;;;1.04;;
15502;SDS011;7853;52.186;5.948;2023-03-07T05:05:35;2.36;;;1.23;;
15502;SDS011;7853;52.186;5.948;2023-03-07T05:06:35;3.40;;;1.39;;
15502;SDS011;7853;52.186;5.948;2023-03-07T05:07:35;2.53;;;1.38;;
15502;SDS011;7853;52.186;5.948;2023-03-07T05:08:35;1.85;;;0.82;;
15502;SDS011;7853;52.186;5.948;2023-03-07T05:09:35;1.67;;;1.01;;
15502;SDS011;7853;52.186;5.948;2023-03-07T05:10:35;0.86;;;0.81;;
15502;SDS011;7853;52.186;5.948;2023-03-07T05:11:34;2.24;;;1.12;;
15502;SDS011;7853;52.186;5.948;2023-03-07T05:12:35;3.47;;;1.40;;
15502;SDS011;7853;52.186;5.948;2023-03-07T05:13:35;2.17;;;1.15;;
15502;SDS011;7853;52.186;5.948;2023-03-07T05:14:35;2.32;;;1.15;;
15502;SDS011;7853;52.186;5.948;2023-03-07T05:15:34;3.07;;;1.26;;
15502;SDS011;7853;52.186;5.948;2023-03-07T05:16:35;3.55;;;1.52;;
15502;SDS011;7853;52.186;5.948;2023-03-07T05:17:35;3.77;;;1.35;;
15502;SDS011;7853;52.186;5.948;2023-03-07T05:18:34;3.22;;;1.30;;
15502;SDS011;7853;52.186;5.948;2023-03-07T05:19:34;2.85;;;1.29;;
15502;SDS011;7853;52.186;5.948;2023-03-07T05:20:35;1.89;;;1.00;;
15502;SDS011;7853;52.186;5.948;2023-03-07T05:21:34;3.26;;;1.27;;
15502;SDS011;7853;52.186;5.948;2023-03-07T05:22:35;3.23;;;1.19;;
15502;SDS011;7853;52.186;5.948;2023-03-07T05:23:34;3.47;;;1.27;;
15502;SDS011;7853;52.186;5.948;2023-03-07T05:24:35;2.84;;;1.19;;
15502;SDS011;7853;52.186;5.948;2023-03-07T05:25:35;3.41;;;1.27;;
15502;SDS011;7853;52.186;5.948;2023-03-07T05:26:35;3.50;;;1.31;;
15502;SDS011;7853;52.186;5.948;2023-03-07T05:27:34;3.31;;;1.11;;
15502;SDS011;7853;52.186;5.948;2023-03-07T05:28:35;2.72;;;1.34;;
15502;SDS011;7853;52.186;5.948;2023-03-07T05:29:35;3.18;;;1.38;;
15502;SDS011;7853;52.186;5.948;2023-03-07T05:30:34;2.87;;;1.32;;
15502;SDS011;7853;52.186;5.948;2023-03-07T05:31:35;2.30;;;0.87;;
15502;SDS011;7853;52.186;5.948;2023-03-07T05:32:35;2.97;;;1.19;;
15502;SDS011;7853;52.186;5.948;2023-03-07T05:33:34;2.21;;;1.12;;
15502;SDS011;7853;52.186;5.948;2023-03-07T05:34:35;2.45;;;1.27;;
15502;SDS011;7853;52.186;5.948;2023-03-07T05:35:35;2.74;;;1.26;;
15502;SDS011;7853;52.186;5.948;2023-03-07T05:36:35;2.73;;;1.18;;
15502;SDS011;7853;52.186;5.948;2023-03-07T05:37:34;3.79;;;1.33;;
15502;SDS011;7853;52.186;5.948;2023-03-07T05:38:35;3.87;;;1.51;;
15502;SDS011;7853;52.186;5.948;2023-03-07T05:39:34;3.60;;;1.35;;
15502;SDS011;7853;52.186;5.948;2023-03-07T05:40:35;3.69;;;1.35;;
15502;SDS011;7853;52.186;5.948;2023-03-07T05:41:35;3.09;;;1.41;;
15502;SDS011;7853;52.186;5.948;2023-03-07T05:42:35;2.92;;;1.39;;
15502;SDS011;7853;52.186;5.948;2023-03-07T05:43:34;2.41;;;1.30;;
15502;SDS011;7853;52.186;5.948;2023-03-07T05:44:34;2.02;;;1.43;;
15502;SDS011;7853;52.186;5.948;2023-03-07T05:45:35;2.87;;;1.20;;
15502;SDS011;7853;52.186;5.948;2023-03-07T05:46:35;2.72;;;1.41;;
15502;SDS011;7853;52.186;5.948;2023-03-07T05:47:35;3.47;;;1.29;;
15502;SDS011;7853;52.186;5.948;2023-03-07T05:48:36;2.46;;;1.33;;
15502;SDS011;7853;52.186;5.948;2023-03-07T05:49:34;3.42;;;1.27;;
15502;SDS011;7853;52.186;5.948;2023-03-07T05:50:35;4.43;;;1.42;;
15502;SDS011;7853;52.186;5.948;2023-03-07T05:51:34;2.64;;;1.07;;
15502;SDS011;7853;52.186;5.948;2023-03-07T05:52:34;2.34;;;1.15;;
15502;SDS011;7853;52.186;5.948;2023-03-07T05:53:35;3.47;;;1.23;;
15502;SDS011;7853;52.186;5.948;2023-03-07T05:54:35;2.92;;;1.17;;
15502;SDS011;7853;52.186;5.948;2023-03-07T05:55:34;3.02;;;1.20;;
15502;SDS011;7853;52.186;5.948;2023-03-07T05:56:35;1.98;;;0.94;;
15502;SDS011;7853;52.186;5.948;2023-03-07T05:57:34;1.78;;;0.92;;
15502;SDS011;7853;52.186;5.948;2023-03-07T05:58:35;2.06;;;1.09;;
15502;SDS011;7853;52.186;5.948;2023-03-07T05:59:34;2.25;;;0.96;;
15502;SDS011;7853;52.186;5.948;2023-03-07T06:00:35;0.92;;;0.69;;
15502;SDS011;7853;52.186;5.948;2023-03-07T06:01:35;1.73;;;0.77;;
15502;SDS011;7853;52.186;5.948;2023-03-07T06:02:35;2.35;;;1.20;;
15502;SDS011;7853;52.186;5.948;2023-03-07T06:03:35;1.49;;;0.87;;
15502;SDS011;7853;52.186;5.948;2023-03-07T06:04:35;1.39;;;0.65;;
15502;SDS011;7853;52.186;5.948;2023-03-07T06:05:35;1.15;;;0.85;;
15502;SDS011;7853;52.186;5.948;2023-03-07T06:06:35;1.83;;;0.89;;
15502;SDS011;7853;52.186;5.948;2023-03-07T06:07:34;2.07;;;0.91;;
15502;SDS011;7853;52.186;5.948;2023-03-07T06:08:35;1.27;;;0.91;;